createdAt,value
2018-07-05T00:02:20.749Z,19.70
2018-07-05T00:05:00.525Z,19.70
2018-07-05T00:07:40.130Z,19.70
2018-07-05T00:10:19.918Z,19.70
2018-07-05T00:12:59.789Z,19.60
2018-07-05T00:15:39.528Z,19.50
2018-07-05T00:18:19.215Z,19.40
2018-07-05T00:20:58.949Z,19.40
2018-07-05T00:23:38.804Z,19.30
2018-07-05T00:26:19.151Z,19.30
2018-07-05T00:28:58.797Z,19.30
2018-07-05T00:31:38.496Z,19.20
2018-07-05T00:34:18.185Z,19.10
2018-07-05T00:36:57.981Z,19.10
2018-07-05T00:39:37.865Z,19.10
2018-07-05T00:42:17.637Z,19.20
2018-07-05T00:44:57.434Z,19.20
2018-07-05T00:47:37.276Z,19.20
2018-07-05T00:50:16.965Z,19.20
2018-07-05T00:52:56.677Z,19.20
2018-07-05T00:55:36.473Z,19.10
2018-07-05T00:58:16.294Z,19.20
2018-07-05T01:00:56.106Z,19.20
2018-07-05T01:03:35.848Z,19.10
2018-07-05T01:06:15.797Z,19.10
2018-07-05T01:08:55.538Z,19.10
2018-07-05T01:11:35.221Z,19.20
2018-07-05T01:14:15.083Z,19.10
2018-07-05T01:16:54.830Z,19.20
2018-07-05T01:19:34.589Z,19.10
2018-07-05T01:22:14.381Z,19.10
2018-07-05T01:24:53.989Z,19.10
2018-07-05T01:27:36.992Z,19.10
2018-07-05T01:30:17.997Z,19.10
2018-07-05T01:32:57.872Z,19.10
2018-07-05T01:35:37.923Z,19.10
2018-07-05T01:38:17.709Z,19.10
2018-07-05T01:40:57.357Z,19.10
2018-07-05T01:43:37.134Z,19.10
2018-07-05T01:46:16.772Z,19.10
2018-07-05T01:48:56.473Z,19.10
2018-07-05T01:51:36.289Z,19.10
2018-07-05T01:54:16.196Z,19.10
2018-07-05T01:56:55.920Z,19.10
2018-07-05T01:59:35.907Z,19.10
2018-07-05T02:02:15.557Z,19.10
2018-07-05T02:04:55.446Z,19.10
2018-07-05T02:07:35.113Z,19.10
2018-07-05T02:10:14.977Z,19.00
2018-07-05T02:12:54.709Z,19.00
2018-07-05T02:15:34.356Z,19.00
2018-07-05T02:18:14.179Z,19.00
2018-07-05T02:20:53.869Z,19.00
2018-07-05T02:23:33.829Z,19.00
2018-07-05T02:26:13.602Z,19.00
2018-07-05T02:28:53.317Z,19.00
2018-07-05T02:31:33.151Z,18.90
2018-07-05T02:34:12.849Z,19.00
2018-07-05T02:36:52.665Z,18.90
2018-07-05T02:39:37.789Z,18.90
2018-07-05T02:42:17.565Z,18.90
2018-07-05T02:44:57.213Z,18.90
2018-07-05T02:47:36.909Z,18.90
2018-07-05T02:50:16.748Z,18.90
2018-07-05T02:52:56.561Z,18.90
2018-07-05T02:55:36.350Z,18.90
2018-07-05T02:58:16.069Z,18.90
2018-07-05T03:00:55.861Z,18.90
2018-07-05T03:03:35.807Z,18.90
2018-07-05T03:06:15.554Z,18.90
2018-07-05T03:08:55.262Z,18.80
2018-07-05T03:11:35.037Z,18.80
2018-07-05T03:14:14.781Z,18.90
2018-07-05T03:16:54.418Z,18.80
2018-07-05T03:19:34.169Z,18.80
2018-07-05T03:22:13.821Z,18.80
2018-07-05T03:24:53.606Z,18.80
2018-07-05T03:27:33.458Z,18.80
2018-07-05T03:30:13.112Z,18.80
2018-07-05T03:32:52.663Z,18.70
2018-07-05T03:35:34.341Z,18.70
2018-07-05T03:38:14.101Z,18.70
2018-07-05T03:40:58.217Z,18.70
2018-07-05T03:43:38.933Z,18.70
2018-07-05T03:46:18.733Z,18.70
2018-07-05T03:48:58.257Z,18.70
2018-07-05T03:51:38.136Z,18.70
2018-07-05T03:54:17.881Z,18.60
2018-07-05T03:56:57.581Z,18.70
2018-07-05T03:59:37.321Z,18.70
2018-07-05T04:02:17.021Z,18.70
2018-07-05T04:04:56.773Z,18.70
2018-07-05T04:07:36.553Z,18.70
2018-07-05T04:10:16.225Z,18.70
2018-07-05T04:12:55.962Z,18.70
2018-07-05T04:15:35.649Z,18.70
2018-07-05T04:18:15.457Z,18.80
2018-07-05T04:20:55.180Z,18.80
2018-07-05T04:23:34.929Z,18.80
2018-07-05T04:26:14.601Z,18.80
2018-07-05T04:28:54.396Z,18.80
2018-07-05T04:31:34.149Z,18.80
2018-07-05T04:34:13.970Z,18.90
2018-07-05T04:36:53.597Z,18.80
2018-07-05T04:39:33.349Z,18.80
2018-07-05T04:42:12.964Z,18.80
2018-07-05T04:44:52.591Z,18.80
2018-07-05T04:47:32.219Z,18.80
2018-07-05T04:50:12.037Z,18.70
2018-07-05T04:52:52.505Z,18.70
2018-07-05T04:55:32.255Z,18.70
2018-07-05T04:58:12.929Z,18.70
2018-07-05T05:00:52.668Z,18.70
2018-07-05T05:03:32.462Z,18.70
2018-07-05T05:06:12.185Z,18.70
2018-07-05T05:08:51.913Z,18.70
2018-07-05T05:11:31.670Z,18.70
2018-07-05T05:14:11.568Z,18.70
2018-07-05T05:16:51.216Z,18.70
2018-07-05T05:19:30.881Z,18.70
2018-07-05T05:22:10.653Z,18.70
2018-07-05T05:24:50.467Z,18.70
2018-07-05T05:27:30.244Z,18.70
2018-07-05T05:30:09.969Z,18.70
2018-07-05T05:32:49.806Z,18.70
2018-07-05T05:35:29.457Z,18.70
2018-07-05T05:38:09.273Z,18.70
2018-07-05T05:40:49.087Z,18.80
2018-07-05T05:43:28.909Z,18.80
2018-07-05T05:46:08.721Z,18.80
2018-07-05T05:48:48.419Z,18.80
2018-07-05T05:51:28.143Z,18.80
2018-07-05T05:54:08.209Z,18.90
2018-07-05T05:56:48.302Z,18.90
2018-07-05T05:59:28.244Z,18.90
2018-07-05T06:02:08.151Z,18.90
2018-07-05T06:04:47.848Z,19.00
2018-07-05T06:07:28.169Z,19.00
2018-07-05T06:10:07.969Z,19.10
2018-07-05T06:15:22.237Z,19.20
2018-07-05T06:18:02.043Z,19.20
2018-07-05T06:20:41.834Z,19.20
2018-07-05T06:23:21.528Z,19.30
2018-07-05T06:28:35.208Z,19.40
2018-07-05T06:33:48.812Z,19.40
2018-07-05T06:36:28.513Z,19.40
2018-07-05T06:39:08.725Z,19.40
2018-07-05T06:41:49.258Z,19.40
2018-07-05T06:44:29.146Z,19.50
2018-07-05T06:47:08.877Z,19.60
2018-07-05T06:49:48.572Z,19.60
2018-07-05T06:52:28.443Z,19.60
2018-07-05T06:55:08.097Z,19.60
2018-07-05T06:57:47.873Z,19.70
2018-07-05T07:00:27.669Z,19.80
2018-07-05T07:03:07.402Z,19.90
2018-07-05T07:05:47.065Z,20.00
2018-07-05T07:08:26.957Z,20.10
2018-07-05T07:11:06.829Z,20.10
2018-07-05T07:13:46.542Z,20.10
2018-07-05T07:16:26.303Z,20.20
2018-07-05T07:19:06.146Z,20.30
2018-07-05T07:21:46.041Z,20.40
2018-07-05T07:24:25.717Z,20.50
2018-07-05T07:27:05.549Z,20.60
2018-07-05T07:29:45.209Z,20.80
2018-07-05T07:32:24.993Z,20.90
2018-07-05T07:35:04.856Z,21.10
2018-07-05T07:37:44.707Z,21.20
2018-07-05T07:40:24.397Z,21.30
2018-07-05T07:42:51.766Z,21.40
2018-07-05T07:45:19.140Z,21.40
2018-07-05T07:47:46.574Z,21.40
2018-07-05T07:50:13.963Z,21.40
2018-07-05T07:52:41.317Z,21.50
2018-07-05T07:55:09.016Z,21.50
2018-07-05T07:57:36.368Z,21.60
2018-07-05T08:00:03.729Z,21.60
2018-07-05T08:02:31.105Z,21.60
2018-07-05T08:04:58.484Z,21.70
2018-07-05T08:07:25.845Z,21.70
2018-07-05T08:09:53.226Z,21.70
2018-07-05T08:12:20.586Z,21.70
2018-07-05T08:14:47.945Z,21.70
2018-07-05T08:17:15.338Z,21.80
2018-07-05T08:19:42.719Z,21.80
2018-07-05T08:22:10.075Z,21.90
2018-07-05T08:24:37.449Z,21.90
2018-07-05T08:27:04.806Z,22.00
2018-07-05T08:29:32.513Z,22.10
2018-07-05T08:31:59.873Z,22.20
2018-07-05T08:34:27.277Z,22.40
2018-07-05T08:36:54.621Z,22.50
2018-07-05T08:39:22.005Z,22.70
2018-07-05T08:41:49.366Z,22.70
2018-07-05T08:44:16.750Z,22.60
2018-07-05T08:46:44.109Z,22.70
2018-07-05T08:49:11.490Z,22.80
2018-07-05T08:51:38.857Z,22.90
2018-07-05T08:54:06.240Z,22.80
2018-07-05T08:56:33.629Z,22.80
2018-07-05T08:59:01.037Z,22.90
2018-07-05T09:01:28.401Z,22.90
2018-07-05T09:03:55.762Z,22.90
2018-07-05T09:06:23.151Z,22.90
2018-07-05T09:08:50.514Z,23.00
2018-07-05T09:11:17.909Z,23.10
2018-07-05T09:13:45.268Z,23.10
2018-07-05T09:16:12.651Z,23.10
2018-07-05T09:18:40.010Z,23.30
2018-07-05T09:21:07.418Z,23.20
2018-07-05T09:23:34.795Z,23.10
2018-07-05T09:26:02.186Z,23.20
2018-07-05T09:28:29.597Z,23.20
2018-07-05T09:30:56.961Z,23.40
2018-07-05T09:33:24.352Z,23.40
2018-07-05T09:35:51.713Z,23.50
2018-07-05T09:38:19.102Z,23.50
2018-07-05T09:40:46.465Z,23.60
2018-07-05T09:43:13.845Z,23.50
2018-07-05T09:45:41.698Z,23.60
2018-07-05T09:48:09.053Z,23.60
2018-07-05T09:50:36.440Z,23.80
2018-07-05T09:53:03.785Z,23.90
2018-07-05T09:55:31.177Z,24.10
2018-07-05T09:57:58.580Z,24.30
2018-07-05T10:00:31.153Z,24.50
2018-07-05T10:02:58.525Z,24.70
2018-07-05T10:05:25.926Z,24.80
2018-07-05T10:07:53.284Z,24.90
2018-07-05T10:10:20.642Z,24.90
2018-07-05T10:12:48.072Z,24.90
2018-07-05T10:15:15.432Z,24.90
2018-07-05T10:17:42.805Z,25.10
2018-07-05T10:20:10.175Z,25.20
2018-07-05T10:22:37.578Z,25.40
2018-07-05T10:25:04.965Z,25.40
2018-07-05T10:27:32.367Z,25.40
2018-07-05T10:30:12.184Z,25.50
2018-07-05T10:32:52.123Z,25.50
2018-07-05T10:35:19.466Z,25.60
2018-07-05T10:37:46.825Z,25.70
2018-07-05T10:40:26.641Z,25.80
2018-07-05T10:43:06.495Z,25.80
2018-07-05T10:45:46.102Z,25.90
2018-07-05T10:48:25.988Z,26.00
2018-07-05T10:51:05.707Z,26.10
2018-07-05T10:53:45.493Z,26.30
2018-07-05T10:56:25.203Z,26.40
2018-07-05T10:59:04.943Z,26.50
2018-07-05T11:01:44.723Z,26.50
2018-07-05T11:04:24.616Z,26.50
2018-07-05T11:07:04.322Z,26.50
2018-07-05T11:09:44.176Z,26.50
2018-07-05T11:12:23.865Z,26.50
2018-07-05T11:15:03.609Z,26.30
2018-07-05T11:17:43.329Z,26.10
2018-07-05T11:20:22.985Z,26.10
2018-07-05T11:23:02.632Z,26.00
2018-07-05T11:25:42.405Z,26.00
2018-07-05T11:28:22.320Z,26.00
2018-07-05T11:31:02.081Z,26.20
2018-07-05T11:33:41.908Z,26.20
2018-07-05T11:36:21.745Z,26.40
2018-07-05T11:39:01.482Z,26.50
2018-07-05T11:41:41.301Z,26.60
2018-07-05T11:44:21.073Z,26.80
2018-07-05T11:47:00.925Z,27.00
2018-07-05T11:49:40.514Z,27.10
2018-07-05T11:52:20.343Z,27.20
2018-07-05T11:55:00.165Z,27.20
2018-07-05T11:57:39.908Z,27.20
2018-07-05T12:00:19.541Z,27.10
2018-07-05T12:02:59.266Z,27.20
2018-07-05T12:05:39.077Z,27.30
2018-07-05T12:08:18.844Z,27.50
2018-07-05T12:10:58.634Z,27.60
2018-07-05T12:13:40.305Z,27.80
2018-07-05T12:16:20.133Z,27.90
2018-07-05T12:18:59.780Z,27.90
2018-07-05T12:21:39.550Z,27.90
2018-07-05T12:24:19.147Z,27.90
2018-07-05T12:26:58.911Z,27.70
2018-07-05T12:29:38.633Z,27.50
2018-07-05T12:32:18.219Z,27.30
2018-07-05T12:34:57.941Z,27.00
2018-07-05T12:37:37.722Z,26.70
2018-07-05T12:40:17.522Z,26.60
2018-07-05T12:42:57.329Z,26.60
2018-07-05T12:45:37.138Z,26.60
2018-07-05T12:48:16.877Z,26.30
2018-07-05T12:50:56.550Z,26.20
2018-07-05T12:53:36.285Z,26.30
2018-07-05T12:56:15.913Z,26.30
2018-07-05T12:58:55.736Z,26.30
2018-07-05T13:01:35.664Z,26.30
2018-07-05T13:04:15.426Z,26.20
2018-07-05T13:06:55.064Z,26.10
2018-07-05T13:09:35.008Z,26.10
2018-07-05T13:12:14.693Z,26.10
2018-07-05T13:14:54.576Z,26.10
2018-07-05T13:17:34.281Z,26.10
2018-07-05T13:20:14.197Z,26.10
2018-07-05T13:22:53.993Z,26.20
2018-07-05T13:25:33.902Z,26.60
2018-07-05T13:28:13.598Z,26.80
2018-07-05T13:30:53.394Z,27.10
2018-07-05T13:33:33.180Z,27.40
2018-07-05T13:36:12.866Z,27.50
2018-07-05T13:38:52.621Z,27.60
2018-07-05T13:41:32.381Z,27.80
2018-07-05T13:44:12.034Z,28.00
2018-07-05T13:46:51.781Z,28.00
2018-07-05T13:49:31.433Z,28.20
2018-07-05T13:52:11.398Z,28.10
2018-07-05T13:54:51.402Z,27.90
2018-07-05T13:57:31.239Z,27.60
2018-07-05T14:00:11.021Z,27.30
2018-07-05T14:02:50.681Z,26.90
2018-07-05T14:05:30.409Z,26.70
2018-07-05T14:08:10.222Z,26.50
2018-07-05T14:10:50.009Z,26.30
2018-07-05T14:13:29.705Z,26.20
2018-07-05T14:16:09.430Z,26.10
2018-07-05T14:18:49.225Z,26.00
2018-07-05T14:21:29.004Z,26.10
2018-07-05T14:24:09.040Z,26.20
2018-07-05T14:26:48.915Z,26.50
2018-07-05T14:29:28.583Z,26.80
2018-07-05T14:32:08.296Z,27.50
2018-07-05T14:34:47.993Z,27.90
2018-07-05T14:37:27.801Z,28.10
2018-07-05T14:40:07.525Z,28.00
2018-07-05T14:42:47.162Z,28.50
2018-07-05T14:45:27.034Z,28.90
2018-07-05T14:48:07.053Z,28.90
2018-07-05T14:50:46.749Z,28.70
2018-07-05T14:53:26.529Z,28.90
2018-07-05T14:56:06.249Z,28.60
2018-07-05T14:58:46.016Z,28.30
2018-07-05T15:01:26.054Z,28.00
2018-07-05T15:04:05.752Z,27.70
2018-07-05T15:06:45.608Z,27.30
2018-07-05T15:09:25.434Z,27.00
2018-07-05T15:12:05.349Z,26.80
2018-07-05T15:14:44.963Z,26.70
2018-07-05T15:17:24.680Z,26.60
2018-07-05T15:20:04.377Z,26.50
2018-07-05T15:22:44.041Z,26.40
2018-07-05T15:25:23.881Z,26.30
2018-07-05T15:28:03.624Z,26.20
2018-07-05T15:30:43.484Z,26.20
2018-07-05T15:33:23.449Z,26.10
2018-07-05T15:36:03.156Z,26.10
2018-07-05T15:38:42.945Z,26.10
2018-07-05T15:41:22.661Z,26.10
2018-07-05T15:44:02.421Z,26.10
2018-07-05T15:46:42.178Z,26.00
2018-07-05T15:49:21.965Z,26.10
2018-07-05T15:52:01.817Z,26.10
2018-07-05T15:54:41.507Z,26.20
2018-07-05T15:57:21.213Z,26.20
2018-07-05T16:00:00.980Z,26.30
2018-07-05T16:02:40.642Z,26.40
2018-07-05T16:05:20.410Z,26.40
2018-07-05T16:08:00.201Z,26.50
2018-07-05T16:10:39.998Z,26.40
2018-07-05T16:13:19.834Z,26.50
2018-07-05T16:15:59.734Z,26.40
2018-07-05T16:18:39.567Z,26.30
2018-07-05T16:23:53.274Z,26.20
2018-07-05T16:26:33.043Z,26.20
2018-07-05T16:29:12.762Z,26.10
2018-07-05T16:31:52.448Z,26.10
2018-07-05T16:34:32.364Z,26.20
2018-07-05T16:37:12.210Z,26.30
2018-07-05T16:39:51.844Z,26.20
2018-07-05T16:42:31.594Z,26.30
2018-07-05T16:45:11.308Z,26.30
2018-07-05T16:47:51.045Z,26.40
2018-07-05T16:50:30.826Z,26.40
2018-07-05T16:53:10.753Z,26.40
2018-07-05T16:55:50.273Z,26.40
2018-07-05T16:58:30.041Z,26.40
2018-07-05T17:01:09.790Z,26.30
2018-07-05T17:03:49.493Z,26.20
2018-07-05T17:06:29.379Z,26.00
2018-07-05T17:09:09.188Z,25.90
2018-07-05T17:11:49.053Z,25.80
2018-07-05T17:14:28.683Z,25.70
2018-07-05T17:17:08.607Z,25.60
2018-07-05T17:19:48.250Z,25.60
2018-07-05T17:22:27.861Z,25.50
2018-07-05T17:25:07.781Z,25.50
2018-07-05T17:27:47.615Z,25.40
2018-07-05T17:30:27.241Z,25.50
2018-07-05T17:33:06.914Z,25.40
2018-07-05T17:35:50.401Z,25.40
2018-07-05T17:38:30.120Z,25.30
2018-07-05T17:41:10.065Z,25.30
2018-07-05T17:43:49.853Z,25.20
2018-07-05T17:46:29.497Z,25.20
2018-07-05T17:49:09.309Z,25.10
2018-07-05T17:51:49.026Z,24.90
2018-07-05T17:54:28.649Z,24.80
2018-07-05T17:57:08.317Z,24.80
2018-07-05T17:59:48.133Z,24.70
2018-07-05T18:02:27.948Z,24.60
2018-07-05T18:05:07.678Z,24.60
2018-07-05T18:07:47.397Z,24.60
2018-07-05T18:10:27.065Z,24.50
2018-07-05T18:13:06.780Z,24.50
2018-07-05T18:15:46.633Z,24.50
2018-07-05T18:18:26.705Z,24.40
2018-07-05T18:21:06.433Z,24.40
2018-07-05T18:23:47.196Z,24.30
2018-07-05T18:26:27.180Z,24.20
2018-07-05T18:29:06.801Z,24.10
2018-07-05T18:31:46.509Z,24.00
2018-07-05T18:34:26.477Z,23.90
2018-07-05T18:37:06.190Z,23.90
2018-07-05T18:39:45.976Z,23.80
2018-07-05T18:42:25.845Z,23.70
2018-07-05T18:45:05.555Z,23.60
2018-07-05T18:47:45.253Z,23.50
2018-07-05T18:50:25.045Z,23.50
2018-07-05T18:53:04.770Z,23.40
2018-07-05T18:55:44.621Z,23.30
2018-07-05T18:58:24.252Z,23.20
2018-07-05T19:01:04.124Z,23.20
2018-07-05T19:03:43.957Z,23.10
2018-07-05T19:06:23.557Z,23.00
2018-07-05T19:09:03.416Z,22.90
2018-07-05T19:11:43.288Z,22.80
2018-07-05T19:14:23.021Z,22.70
2018-07-05T19:17:02.781Z,22.60
2018-07-05T19:19:42.373Z,22.60
2018-07-05T19:22:22.185Z,22.50
2018-07-05T19:25:02.153Z,22.40
2018-07-05T19:27:41.904Z,22.40
2018-07-05T19:30:21.597Z,22.30
2018-07-05T19:33:01.417Z,22.20
2018-07-05T19:35:41.260Z,22.10
2018-07-05T19:38:21.025Z,22.00
2018-07-05T19:41:00.758Z,21.90
2018-07-05T19:43:40.328Z,21.80
2018-07-05T19:46:20.170Z,21.70
2018-07-05T19:48:59.982Z,21.60
2018-07-05T19:51:39.669Z,21.50
2018-07-05T19:54:19.369Z,21.50
2018-07-05T19:56:59.021Z,21.40
2018-07-05T19:59:38.901Z,21.40
2018-07-05T20:02:18.772Z,21.30
2018-07-05T20:04:58.611Z,21.20
2018-07-05T20:07:38.577Z,21.10
2018-07-05T20:10:18.337Z,21.10
2018-07-05T20:12:58.037Z,21.10
2018-07-05T20:15:37.820Z,21.10
2018-07-05T20:18:17.366Z,21.20
2018-07-05T20:20:57.243Z,21.10
2018-07-05T20:23:37.020Z,21.10
2018-07-05T20:26:16.637Z,21.20
2018-07-05T20:28:56.369Z,21.10
2018-07-05T20:31:36.305Z,21.20
2018-07-05T20:34:16.180Z,21.10
2018-07-05T20:36:55.821Z,21.20
2018-07-05T20:39:35.655Z,21.30
2018-07-05T20:42:15.570Z,21.30
2018-07-05T20:44:55.293Z,21.30
2018-07-05T20:47:34.978Z,21.30
2018-07-05T20:50:14.698Z,21.30
2018-07-05T20:52:54.717Z,21.30
2018-07-05T20:55:34.436Z,21.10
2018-07-05T20:58:14.341Z,21.20
2018-07-05T21:00:54.112Z,21.10
2018-07-05T21:03:34.043Z,21.10
2018-07-05T21:06:13.843Z,21.10
2018-07-05T21:08:53.737Z,21.00
2018-07-05T21:11:33.477Z,21.00
2018-07-05T21:14:13.312Z,20.90
2018-07-05T21:16:53.014Z,20.90
2018-07-05T21:19:32.721Z,20.80
2018-07-05T21:22:12.409Z,20.70
2018-07-05T21:24:52.175Z,20.60
2018-07-05T21:27:31.844Z,20.50
2018-07-05T21:30:11.751Z,20.40
2018-07-05T21:32:51.616Z,20.30
2018-07-05T21:35:31.238Z,20.20
2018-07-05T21:38:10.837Z,20.10
2018-07-05T21:40:50.631Z,20.10
2018-07-05T21:43:30.321Z,20.00
2018-07-05T21:46:10.089Z,19.90
2018-07-05T21:48:49.748Z,19.80
2018-07-05T21:51:29.396Z,19.70
2018-07-05T21:54:09.303Z,19.60
2018-07-05T21:56:49.121Z,19.60
2018-07-05T21:59:28.888Z,19.50
2018-07-05T22:02:08.635Z,19.50
2018-07-05T22:04:48.353Z,19.40
2018-07-05T22:07:28.145Z,19.30
2018-07-05T22:10:07.736Z,19.30
2018-07-05T22:12:47.449Z,19.30
2018-07-05T22:15:27.176Z,19.30
2018-07-05T22:20:51.790Z,19.30
2018-07-05T22:23:36.898Z,19.20
2018-07-05T22:26:22.094Z,19.30
2018-07-05T22:29:07.442Z,19.20
2018-07-05T22:31:51.389Z,19.20
2018-07-05T22:34:31.149Z,19.30
2018-07-05T22:37:10.797Z,19.30
2018-07-05T22:39:50.581Z,19.10
2018-07-05T22:42:30.292Z,19.10
2018-07-05T22:45:09.856Z,19.00
2018-07-05T22:47:49.577Z,19.00
2018-07-05T22:50:29.085Z,18.90
2018-07-05T22:53:08.809Z,18.90
2018-07-05T22:55:48.594Z,18.90
2018-07-05T22:58:28.401Z,18.90
2018-07-05T23:01:08.089Z,18.80
2018-07-05T23:03:47.852Z,18.90
2018-07-05T23:06:27.701Z,18.80
2018-07-05T23:09:07.437Z,18.80
2018-07-05T23:11:47.265Z,18.80
2018-07-05T23:14:27.104Z,18.70
2018-07-05T23:17:06.933Z,18.70
2018-07-05T23:19:46.554Z,18.70
2018-07-05T23:22:26.420Z,18.60
2018-07-05T23:25:06.640Z,18.60
2018-07-05T23:27:46.698Z,18.60
2018-07-05T23:30:26.445Z,18.50
2018-07-05T23:35:39.829Z,18.40
2018-07-05T23:38:19.456Z,18.40
2018-07-05T23:40:59.169Z,18.40
2018-07-05T23:43:39.036Z,18.40
2018-07-05T23:46:18.673Z,18.30
2018-07-05T23:48:58.561Z,18.30
2018-07-05T23:51:38.361Z,18.20
2018-07-05T23:54:18.354Z,18.20
2018-07-05T23:56:58.335Z,18.10
2018-07-05T23:59:38.013Z,18.00
